createdAt,value
2023-02-09T00:00:39.672Z,50.852757
2023-02-09T00:01:39.739Z,50.852791
2023-02-09T00:02:39.652Z,50.852802
2023-02-09T00:03:39.743Z,50.852810
2023-02-09T00:04:39.644Z,50.852825
2023-02-09T00:05:39.638Z,50.852764
2023-02-09T00:06:39.630Z,50.852837
2023-02-09T00:07:39.624Z,50.852768
2023-02-09T00:08:39.636Z,50.852787
2023-02-09T00:09:39.630Z,50.852711
2023-02-09T00:10:39.605Z,50.852718
2023-02-09T00:11:39.595Z,50.852779
2023-02-09T00:12:39.590Z,50.852764
2023-02-09T00:13:39.585Z,50.852745
2023-02-09T00:14:39.575Z,50.852798
2023-02-09T00:15:39.590Z,50.852810
2023-02-09T00:16:39.612Z,50.852810
2023-02-09T00:17:39.562Z,50.852814
2023-02-09T00:18:39.563Z,50.852814
2023-02-09T00:19:39.562Z,50.852814
2023-02-09T00:20:39.538Z,50.852814
2023-02-09T00:21:39.536Z,50.852650
2023-02-09T00:22:39.534Z,50.852669
2023-02-09T00:23:39.517Z,50.852718
2023-02-09T00:24:39.511Z,50.852734
2023-02-09T00:25:39.515Z,50.852585
2023-02-09T00:26:39.533Z,50.852753
2023-02-09T00:27:39.497Z,50.852757
2023-02-09T00:28:39.489Z,50.852669
2023-02-09T00:29:39.493Z,50.852688
2023-02-09T00:30:39.525Z,50.852634
2023-02-09T00:31:39.513Z,50.852600
2023-02-09T00:32:39.458Z,50.852745
2023-02-09T00:33:39.478Z,50.852711
2023-02-09T00:34:39.466Z,50.852791
2023-02-09T00:35:39.441Z,50.852650
2023-02-09T00:36:39.434Z,50.852680
2023-02-09T00:37:39.432Z,50.852734
2023-02-09T00:38:39.423Z,50.852779
2023-02-09T00:39:39.440Z,50.852619
2023-02-09T00:40:39.424Z,50.852615
2023-02-09T00:41:39.447Z,50.852615
2023-02-09T00:42:39.398Z,50.852604
2023-02-09T00:43:39.415Z,50.852718
2023-02-09T00:44:39.400Z,50.852718
2023-02-09T00:45:39.462Z,50.852718
2023-02-09T00:46:39.416Z,50.852875
2023-02-09T00:47:39.358Z,50.852749
2023-02-09T00:48:39.382Z,50.853230
2023-02-09T00:49:39.346Z,50.853230
2023-02-09T00:50:39.335Z,50.853230
2023-02-09T00:51:39.352Z,50.853230
2023-02-09T00:52:39.331Z,50.853230
2023-02-09T00:53:39.353Z,50.853230
2023-02-09T00:54:39.324Z,50.853230
2023-02-09T00:55:39.330Z,50.853230
2023-02-09T00:56:39.297Z,50.852779
2023-02-09T00:57:39.323Z,50.853016
2023-02-09T00:58:39.309Z,50.852867
2023-02-09T00:59:39.283Z,50.852848
2023-02-09T01:00:39.273Z,50.852943
2023-02-09T01:01:39.336Z,50.853001
2023-02-09T01:02:39.268Z,50.852974
2023-02-09T01:03:39.269Z,50.852974
2023-02-09T01:04:39.316Z,50.852974
2023-02-09T01:05:39.250Z,50.852974
2023-02-09T01:06:39.249Z,50.852974
2023-02-09T01:07:39.222Z,50.852810
2023-02-09T01:08:39.243Z,50.852905
2023-02-09T01:09:39.237Z,50.852810
2023-02-09T01:10:39.232Z,50.852810
2023-02-09T01:11:39.205Z,50.852787
2023-02-09T01:12:39.196Z,50.852791
2023-02-09T01:13:39.194Z,50.852791
2023-02-09T01:14:39.194Z,50.852806
2023-02-09T01:15:39.200Z,50.852806
2023-02-09T01:16:39.222Z,50.852806
2023-02-09T01:17:39.167Z,50.852806
2023-02-09T01:18:39.183Z,50.852806
2023-02-09T01:19:39.160Z,50.852806
2023-02-09T01:20:39.176Z,50.852806
2023-02-09T01:21:39.143Z,50.852806
2023-02-09T01:22:39.137Z,50.852806
2023-02-09T01:23:39.134Z,50.852806
2023-02-09T01:24:39.122Z,50.852806
2023-02-09T01:25:39.164Z,50.852806
2023-02-09T01:26:39.108Z,50.852806
2023-02-09T01:27:39.118Z,50.852806
2023-02-09T01:28:39.117Z,50.852806
2023-02-09T01:29:39.116Z,50.852806
2023-02-09T01:30:39.215Z,50.852806
2023-02-09T01:31:39.242Z,50.852806
2023-02-09T01:32:39.088Z,50.852806
2023-02-09T01:33:39.070Z,50.852806
2023-02-09T01:34:39.054Z,50.852806
2023-02-09T01:35:39.054Z,50.852806
2023-02-09T01:36:39.065Z,50.852806
2023-02-09T01:37:39.041Z,50.852806
2023-02-09T01:38:39.048Z,50.852806
2023-02-09T01:39:39.025Z,50.852806
2023-02-09T01:40:39.020Z,50.852806
2023-02-09T01:41:39.013Z,50.852806
2023-02-09T01:42:39.017Z,50.852806
2023-02-09T01:43:39.014Z,50.852806
2023-02-09T01:44:39.021Z,50.852806
2023-02-09T01:45:38.992Z,50.852806
2023-02-09T01:46:39.039Z,50.852806
2023-02-09T01:47:38.996Z,50.852806
2023-02-09T01:48:38.977Z,50.852806
2023-02-09T01:49:39.010Z,50.852806
2023-02-09T01:50:38.968Z,50.852806
2023-02-09T01:51:38.963Z,50.852806
2023-02-09T01:52:38.944Z,50.852806
2023-02-09T01:53:38.942Z,50.852806
2023-02-09T01:54:38.995Z,50.852806
2023-02-09T01:55:38.938Z,50.852806
2023-02-09T01:56:38.923Z,50.852806
2023-02-09T01:57:38.926Z,50.852806
2023-02-09T01:58:38.911Z,50.852806
2023-02-09T01:59:38.907Z,50.852806
2023-02-09T02:00:38.923Z,50.852806
2023-02-09T02:01:38.928Z,50.852806
2023-02-09T02:02:38.955Z,50.852806
2023-02-09T02:03:38.885Z,50.852806
2023-02-09T02:04:38.876Z,50.852806
2023-02-09T02:05:38.879Z,50.852806
2023-02-09T02:06:38.860Z,50.852806
2023-02-09T02:07:38.875Z,50.852806
2023-02-09T02:08:38.869Z,50.852806
2023-02-09T02:09:38.841Z,50.852806
2023-02-09T02:10:38.832Z,50.852806
2023-02-09T02:11:38.842Z,50.852806
2023-02-09T02:12:38.813Z,50.852806
2023-02-09T02:13:38.817Z,50.852806
2023-02-09T02:14:38.823Z,50.852806
2023-02-09T02:15:38.849Z,50.852806
2023-02-09T02:16:38.796Z,50.852806
2023-02-09T02:17:38.785Z,50.852806
2023-02-09T02:18:38.779Z,50.852806
2023-02-09T02:19:38.777Z,50.852806
2023-02-09T02:20:38.782Z,50.852806
2023-02-09T02:21:38.760Z,50.852806
2023-02-09T02:22:38.757Z,50.852806
2023-02-09T02:23:38.754Z,50.852806
2023-02-09T02:24:38.739Z,50.852806
2023-02-09T02:25:38.753Z,50.852806
2023-02-09T02:26:38.732Z,50.852806
2023-02-09T02:27:38.720Z,50.852806
2023-02-09T02:28:38.735Z,50.852806
2023-02-09T02:29:38.716Z,50.852806
2023-02-09T02:30:38.793Z,50.852806
2023-02-09T02:31:38.717Z,50.852806
2023-02-09T02:32:38.693Z,50.852806
2023-02-09T02:33:38.703Z,50.852806
2023-02-09T02:34:38.677Z,50.852806
2023-02-09T02:35:38.690Z,50.852806
2023-02-09T02:36:38.666Z,50.852806
2023-02-09T02:37:38.658Z,50.852806
2023-02-09T02:38:38.665Z,50.852806
2023-02-09T02:39:38.644Z,50.852806
2023-02-09T02:40:38.635Z,50.852806
2023-02-09T02:41:38.625Z,50.852806
2023-02-09T02:42:38.625Z,50.852806
2023-02-09T02:43:38.615Z,50.852806
2023-02-09T02:44:38.626Z,50.852806
2023-02-09T02:45:38.615Z,50.852806
2023-02-09T02:46:38.625Z,50.852806
2023-02-09T02:47:38.590Z,50.852806
2023-02-09T02:48:38.620Z,50.852806
2023-02-09T02:49:38.591Z,50.852806
2023-02-09T02:50:38.626Z,50.852806
2023-02-09T02:51:38.577Z,50.852806
2023-02-09T02:52:38.571Z,50.852806
2023-02-09T02:53:38.559Z,50.852806
2023-02-09T02:54:38.586Z,50.852806
2023-02-09T02:55:38.565Z,50.852806
2023-02-09T02:56:38.542Z,50.852806
2023-02-09T02:57:38.536Z,50.852806
2023-02-09T02:58:38.528Z,50.852806
2023-02-09T02:59:38.525Z,50.852806
2023-02-09T03:00:38.534Z,50.852806
2023-02-09T03:01:38.568Z,50.852806
2023-02-09T03:02:38.500Z,50.852806
2023-02-09T03:03:38.514Z,50.852806
2023-02-09T03:04:38.491Z,50.852806
2023-02-09T03:05:38.566Z,50.852806
2023-02-09T03:06:38.479Z,50.852806
2023-02-09T03:07:38.492Z,50.852806
2023-02-09T03:08:38.468Z,50.852806
2023-02-09T03:09:38.459Z,50.852806
2023-02-09T03:10:38.476Z,50.852806
2023-02-09T03:11:38.447Z,50.852806
2023-02-09T03:12:38.442Z,50.852806
2023-02-09T03:13:38.444Z,50.852806
2023-02-09T03:14:38.433Z,50.852806
2023-02-09T04:07:57.747Z,50.852772
2023-02-09T04:08:57.781Z,50.852974
2023-02-09T04:12:04.774Z,50.852818
2023-02-09T04:13:04.765Z,50.852718
2023-02-09T04:14:04.781Z,50.852745
2023-02-09T04:15:04.815Z,50.852829
2023-02-09T04:16:04.758Z,50.852829
2023-02-09T04:17:04.757Z,50.852829
2023-02-09T04:18:04.753Z,50.852829
2023-02-09T04:19:04.729Z,50.852730
2023-02-09T04:20:04.721Z,50.852795
2023-02-09T04:21:04.717Z,50.852795
2023-02-09T04:22:04.705Z,50.852795
2023-02-09T04:23:04.721Z,50.852795
2023-02-09T04:24:04.708Z,50.852795
2023-02-09T04:25:04.703Z,50.852795
2023-02-09T04:26:04.672Z,50.852795
2023-02-09T04:27:04.670Z,50.852795
2023-02-09T04:28:04.725Z,50.852795
2023-02-09T04:29:04.676Z,50.852795
2023-02-09T04:30:04.664Z,50.852795
2023-02-09T04:31:04.710Z,50.852795
2023-02-09T04:32:04.741Z,50.852795
2023-02-09T04:33:04.628Z,50.852795
2023-02-09T04:34:04.658Z,50.852795
2023-02-09T04:35:04.619Z,50.852795
2023-02-09T04:36:04.615Z,50.852795
2023-02-09T04:37:04.605Z,50.852795
2023-02-09T04:38:04.713Z,50.852795
2023-02-09T04:39:04.589Z,50.852795
2023-02-09T04:40:06.786Z,50.852795
2023-02-09T04:41:04.584Z,50.852795
2023-02-09T04:42:04.573Z,50.852795
2023-02-09T04:43:04.564Z,50.852795
2023-02-09T04:44:04.556Z,50.852795
2023-02-09T04:45:04.556Z,50.852795
2023-02-09T04:46:04.632Z,50.852795
2023-02-09T04:47:04.556Z,50.852795
2023-02-09T04:48:04.538Z,50.852795
2023-02-09T04:49:04.549Z,50.852795
2023-02-09T04:50:04.546Z,50.852795
2023-02-09T04:51:04.518Z,50.852795
2023-02-09T04:52:04.505Z,50.852711
2023-02-09T04:53:04.524Z,50.852711
2023-02-09T04:54:04.495Z,50.852592
2023-02-09T04:55:04.501Z,50.852592
2023-02-09T04:56:04.491Z,50.852856
2023-02-09T04:57:04.506Z,50.852882
2023-02-09T04:58:04.475Z,50.852760
2023-02-09T04:59:04.476Z,50.852760
2023-02-09T05:00:04.469Z,50.852844
2023-02-09T05:01:04.542Z,50.852856
2023-02-09T05:02:04.450Z,50.852825
2023-02-09T05:03:04.551Z,50.852879
2023-02-09T05:04:04.436Z,50.852692
2023-02-09T05:05:04.468Z,50.852707
2023-02-09T05:06:04.430Z,50.852589
2023-02-09T05:07:04.421Z,50.852669
2023-02-09T05:08:04.414Z,50.852699
2023-02-09T05:09:04.422Z,50.852875
2023-02-09T05:10:04.422Z,50.852699
2023-02-09T05:11:04.390Z,50.852837
2023-02-09T05:12:04.390Z,50.852898
2023-02-09T05:13:04.386Z,50.852734
2023-02-09T05:14:04.378Z,50.852951
2023-02-09T05:15:04.389Z,50.852703
2023-02-09T05:16:04.366Z,50.852703
2023-02-09T05:17:04.374Z,50.852554
2023-02-09T05:18:04.373Z,50.852798
2023-02-09T05:19:04.348Z,50.852806
2023-02-09T05:20:04.347Z,50.852814
2023-02-09T05:21:04.357Z,50.852871
2023-02-09T05:22:04.328Z,50.852608
2023-02-09T05:23:04.361Z,50.852695
2023-02-09T05:24:04.318Z,50.852688
2023-02-09T05:25:04.316Z,50.852707
2023-02-09T05:26:04.304Z,50.852875
2023-02-09T05:27:04.309Z,50.852798
2023-02-09T05:28:04.354Z,50.852753
2023-02-09T05:29:04.289Z,50.852654
2023-02-09T05:30:04.284Z,50.852577
2023-02-09T05:31:04.390Z,50.852650
2023-02-09T05:32:04.325Z,50.852646
2023-02-09T05:33:04.277Z,50.852745
2023-02-09T05:34:04.286Z,50.852695
2023-02-09T05:35:04.260Z,50.852806
2023-02-09T05:36:04.271Z,50.852745
2023-02-09T05:37:04.245Z,50.852695
2023-02-09T05:38:04.253Z,50.852715
2023-02-09T05:39:04.267Z,50.852818
2023-02-09T05:40:05.161Z,50.852753
2023-02-09T05:41:04.223Z,50.852726
2023-02-09T05:42:04.215Z,50.852711
2023-02-09T05:43:04.202Z,50.852711
2023-02-09T05:44:04.213Z,50.852734
2023-02-09T05:45:04.220Z,50.852753
2023-02-09T05:46:07.045Z,50.852722
2023-02-09T05:47:04.185Z,50.852737
2023-02-09T05:48:04.190Z,50.852722
2023-02-09T05:49:04.183Z,50.852791
2023-02-09T05:50:04.155Z,50.852768
2023-02-09T05:51:04.148Z,50.852711
2023-02-09T05:52:04.150Z,50.852760
2023-02-09T05:53:04.144Z,50.852760
2023-02-09T05:54:04.169Z,50.852718
2023-02-09T05:55:04.123Z,50.852726
2023-02-09T05:56:04.121Z,50.852715
2023-02-09T05:57:04.118Z,50.852695
2023-02-09T05:58:04.119Z,50.852760
2023-02-09T05:59:04.766Z,50.852718
2023-02-09T06:00:04.136Z,50.852730
2023-02-09T06:01:04.103Z,50.852779
2023-02-09T06:02:04.117Z,50.852730
2023-02-09T06:03:04.205Z,50.852970
2023-02-09T06:04:04.067Z,50.852810
2023-02-09T06:05:04.099Z,50.852749
2023-02-09T06:06:04.054Z,50.852829
2023-02-09T06:07:04.055Z,50.852745
2023-02-09T06:08:04.049Z,50.852734
2023-02-09T06:09:04.054Z,50.852913
2023-02-09T06:10:04.079Z,50.852837
2023-02-09T06:11:04.025Z,50.852814
2023-02-09T06:12:04.051Z,50.852867
2023-02-09T06:13:04.020Z,50.852821
2023-02-09T06:14:04.019Z,50.852959
2023-02-09T06:15:04.021Z,50.852837
2023-02-09T06:16:04.020Z,50.852673
2023-02-09T06:17:03.990Z,50.852726
2023-02-09T06:18:03.984Z,50.852650
2023-02-09T06:19:03.972Z,50.852779
2023-02-09T06:20:03.998Z,50.852726
2023-02-09T06:21:03.967Z,50.852608
2023-02-09T06:22:03.985Z,50.852421
2023-02-09T06:23:03.950Z,50.852665
2023-02-09T06:24:03.941Z,50.852795
2023-02-09T06:25:03.939Z,50.852791
2023-02-09T06:26:03.942Z,50.852932
2023-02-09T06:27:03.951Z,50.852890
2023-02-09T06:28:03.970Z,50.853157
2023-02-09T06:29:03.913Z,50.853016
2023-02-09T06:30:03.921Z,50.852753
2023-02-09T06:31:03.984Z,50.852863
2023-02-09T06:32:04.034Z,50.852737
2023-02-09T06:33:03.935Z,50.852760
2023-02-09T06:34:03.880Z,50.852871
2023-02-09T06:35:03.877Z,50.852913
2023-02-09T06:36:03.872Z,50.852631
2023-02-09T06:37:03.867Z,50.852573
2023-02-09T06:38:03.872Z,50.852734
2023-02-09T06:39:03.859Z,50.852722
2023-02-09T06:40:03.842Z,50.853149
2023-02-09T06:41:03.842Z,50.852856
2023-02-09T06:42:03.839Z,50.852840
2023-02-09T06:43:03.848Z,50.852165
2023-02-09T06:44:03.820Z,50.852413
2023-02-09T06:45:03.813Z,50.852394
2023-02-09T06:46:03.845Z,50.852264
2023-02-09T06:47:03.818Z,50.852158
2023-02-09T06:48:03.798Z,50.852158
2023-02-09T06:49:03.805Z,50.852158
2023-02-09T06:50:03.788Z,50.852158
2023-02-09T06:51:03.786Z,50.852158
2023-02-09T06:52:03.800Z,50.852158
2023-02-09T06:53:03.770Z,50.852791
2023-02-09T06:54:03.754Z,50.852791
2023-02-09T06:55:03.769Z,50.852791
2023-02-09T06:56:03.746Z,50.852791
2023-02-09T06:57:03.748Z,50.852791
2023-02-09T06:58:03.761Z,50.852791
2023-02-09T06:59:03.731Z,50.852791
2023-02-09T07:00:03.728Z,50.852791
2023-02-09T07:01:03.718Z,50.852791
2023-02-09T07:02:03.764Z,50.852791
2023-02-09T07:03:03.792Z,50.852791
2023-02-09T07:04:03.712Z,50.852791
2023-02-09T07:05:03.708Z,50.852791
2023-02-09T07:06:03.683Z,50.852791
2023-02-09T07:07:03.684Z,50.852791
2023-02-09T07:08:03.688Z,50.852791
2023-02-09T07:09:03.660Z,50.852791
2023-02-09T07:10:03.669Z,50.852791
2023-02-09T07:11:03.663Z,50.852791
2023-02-09T07:12:03.654Z,50.852791
2023-02-09T07:13:03.660Z,50.852791
2023-02-09T07:14:03.641Z,50.852791
2023-02-09T07:15:03.647Z,50.852791
2023-02-09T07:16:03.693Z,50.852791
2023-02-09T07:17:03.631Z,50.852791
2023-02-09T07:18:03.663Z,50.852791
2023-02-09T07:19:03.655Z,50.852791
2023-02-09T07:20:03.643Z,50.852791
2023-02-09T07:21:03.582Z,50.852791
2023-02-09T07:22:03.643Z,50.852791
2023-02-09T07:23:03.576Z,50.852791
2023-02-09T07:24:03.643Z,50.852791
2023-02-09T07:25:03.563Z,50.852791
2023-02-09T07:26:03.557Z,50.852791
2023-02-09T07:27:03.550Z,50.852791
2023-02-09T07:28:03.592Z,50.852791
2023-02-09T07:29:03.536Z,50.852791
2023-02-09T07:30:03.547Z,50.852791
2023-02-09T07:31:03.631Z,50.852791
2023-02-09T07:32:03.520Z,50.852791
2023-02-09T07:33:03.513Z,50.852791
2023-02-09T07:34:03.512Z,50.852791
2023-02-09T07:35:03.511Z,50.852791
2023-02-09T07:36:03.517Z,50.852791
2023-02-09T07:37:03.522Z,50.852791
2023-02-09T07:38:03.479Z,50.852791
2023-02-09T07:39:03.471Z,50.852791
2023-02-09T07:40:03.464Z,50.852791
2023-02-09T07:41:03.477Z,50.852791
2023-02-09T07:42:03.470Z,50.852791
2023-02-09T07:43:03.440Z,50.852791
2023-02-09T07:44:03.434Z,50.852791
2023-02-09T07:45:03.436Z,50.852791
2023-02-09T07:46:03.442Z,50.852791
2023-02-09T07:47:03.418Z,50.852791
2023-02-09T07:48:03.432Z,50.852791
2023-02-09T07:49:03.411Z,50.852791
2023-02-09T07:50:03.403Z,50.852791
2023-02-09T07:51:03.419Z,50.852791
2023-02-09T07:52:03.392Z,50.852791
2023-02-09T07:53:03.395Z,50.852791
2023-02-09T07:54:03.382Z,50.852791
2023-02-09T07:55:03.411Z,50.852791
2023-02-09T07:56:03.382Z,50.852791
2023-02-09T07:57:03.383Z,50.852791
2023-02-09T07:58:03.370Z,50.852791
2023-02-09T07:59:03.352Z,50.852791
2023-02-09T08:00:03.340Z,50.852791
2023-02-09T08:01:03.360Z,50.852791
2023-02-09T08:02:03.371Z,50.852791
2023-02-09T08:03:03.343Z,50.852791
2023-02-09T08:04:03.340Z,50.852791
2023-02-09T08:05:03.384Z,50.852791
2023-02-09T08:06:03.325Z,50.852791
2023-02-09T08:07:03.304Z,50.852791
2023-02-09T08:08:03.308Z,50.852791
2023-02-09T08:09:03.305Z,50.852791
2023-02-09T08:10:03.290Z,50.852791
2023-02-09T08:11:03.322Z,50.852791
2023-02-09T08:12:03.383Z,50.852791
2023-02-09T08:13:03.279Z,50.852791
2023-02-09T08:14:03.271Z,50.852791
2023-02-09T08:15:03.276Z,50.852791
2023-02-09T08:16:03.302Z,50.852791
2023-02-09T08:17:03.257Z,50.852791
2023-02-09T08:18:03.250Z,50.852791
2023-02-09T08:19:03.242Z,50.852791
2023-02-09T08:20:03.232Z,50.852791
2023-02-09T08:21:03.224Z,50.852791
2023-02-09T08:22:03.254Z,50.852791
2023-02-09T08:23:03.221Z,50.852791
2023-02-09T08:24:03.211Z,50.852791
2023-02-09T08:25:03.227Z,50.852791
2023-02-09T08:26:03.199Z,50.852791
2023-02-09T08:27:03.195Z,50.852791
2023-02-09T08:28:03.289Z,50.852791
2023-02-09T08:29:03.192Z,50.852791
2023-02-09T08:30:03.171Z,50.852791
2023-02-09T08:31:03.322Z,50.852791
2023-02-09T08:32:03.264Z,50.852791
2023-02-09T08:33:03.160Z,50.852791
2023-02-09T08:34:03.149Z,50.852791
2023-02-09T08:35:03.149Z,50.852791
2023-02-09T08:36:03.173Z,50.852791
2023-02-09T08:37:03.149Z,50.852791
2023-02-09T08:38:03.133Z,50.852791
2023-02-09T08:39:03.158Z,50.852791
2023-02-09T08:40:03.130Z,50.852791
2023-02-09T08:41:03.151Z,50.852791
2023-02-09T08:42:03.145Z,50.852791
2023-02-09T08:43:03.105Z,50.852791
2023-02-09T08:44:03.084Z,50.852791
2023-02-09T08:45:03.118Z,50.852791
2023-02-09T08:46:03.200Z,50.852791
2023-02-09T08:47:03.221Z,50.852791
2023-02-09T08:48:03.060Z,50.852791
2023-02-09T08:49:03.049Z,50.852791
2023-02-09T08:50:03.064Z,50.852791
2023-02-09T08:51:03.073Z,50.852791
2023-02-09T08:52:03.047Z,50.852791
2023-02-09T08:53:03.051Z,50.852791
2023-02-09T08:54:03.018Z,50.852791
2023-02-09T08:55:03.015Z,50.852901
2023-02-09T08:56:03.010Z,50.852749
2023-02-09T08:57:03.000Z,50.852730
2023-02-09T08:58:03.046Z,50.852722
2023-02-09T08:59:03.014Z,50.852772
2023-02-09T09:00:02.984Z,50.852684
2023-02-09T09:01:03.148Z,50.852726
2023-02-09T09:02:02.970Z,50.852753
2023-02-09T09:03:02.965Z,50.852615
2023-02-09T09:04:03.021Z,50.852600
2023-02-09T09:05:02.970Z,50.852673
2023-02-09T09:06:02.947Z,50.852711
2023-02-09T09:07:02.942Z,50.852734
2023-02-09T09:08:02.941Z,50.852657
2023-02-09T09:09:02.941Z,50.852692
2023-02-09T09:10:02.915Z,50.852711
2023-02-09T09:11:02.934Z,50.852688
2023-02-09T09:12:02.900Z,50.852688
2023-02-09T09:13:02.897Z,50.852722
2023-02-09T09:14:02.893Z,50.852749
2023-02-09T09:15:02.903Z,50.852726
2023-02-09T09:16:05.087Z,50.852718
2023-02-09T09:17:02.905Z,50.852768
2023-02-09T09:18:02.864Z,50.852795
2023-02-09T09:19:02.858Z,50.852737
2023-02-09T09:20:02.839Z,50.852757
2023-02-09T09:21:02.839Z,50.852692
2023-02-09T09:22:02.831Z,50.852757
2023-02-09T09:23:02.873Z,50.852749
2023-02-09T09:24:02.836Z,50.852688
2023-02-09T09:25:02.813Z,50.852776
2023-02-09T09:26:02.807Z,50.852795
2023-02-09T09:27:02.806Z,50.852745
2023-02-09T09:28:02.817Z,50.852730
2023-02-09T09:29:02.813Z,50.852692
2023-02-09T09:30:02.776Z,50.852745
2023-02-09T09:31:02.790Z,50.852776
2023-02-09T09:32:02.861Z,50.852798
2023-02-09T09:33:02.871Z,50.852806
2023-02-09T09:34:02.747Z,50.852848
2023-02-09T09:35:02.742Z,50.852757
2023-02-09T09:36:02.733Z,50.852940
2023-02-09T09:37:02.724Z,50.852787
2023-02-09T09:38:02.725Z,50.852768
2023-02-09T09:39:02.728Z,50.852779
2023-02-09T09:40:02.699Z,50.852821
2023-02-09T09:41:02.710Z,50.852810
2023-02-09T09:42:02.699Z,50.852768
2023-02-09T09:43:02.687Z,50.852726
2023-02-09T09:44:02.679Z,50.852753
2023-02-09T09:45:02.688Z,50.852734
2023-02-09T09:46:02.711Z,50.852791
2023-02-09T09:47:02.654Z,50.852772
2023-02-09T09:48:02.651Z,50.852821
2023-02-09T09:49:02.667Z,50.852821
2023-02-09T09:50:02.638Z,50.852867
2023-02-09T09:51:02.625Z,50.852791
2023-02-09T09:52:02.615Z,50.852802
2023-02-09T09:53:02.612Z,50.852787
2023-02-09T09:54:02.622Z,50.852711
2023-02-09T09:55:02.597Z,50.852798
2023-02-09T09:56:02.592Z,50.852863
2023-02-09T09:57:02.583Z,50.852818
2023-02-09T09:58:02.571Z,50.852783
2023-02-09T09:59:02.571Z,50.852699
2023-02-09T10:00:02.593Z,50.852787
2023-02-09T10:01:02.597Z,50.852783
2023-02-09T10:02:02.538Z,50.852791
2023-02-09T10:03:02.537Z,50.852898
2023-02-09T10:04:02.552Z,50.852707
2023-02-09T10:05:02.543Z,50.852711
2023-02-09T10:06:02.509Z,50.852814
2023-02-09T10:07:02.512Z,50.852795
2023-02-09T10:08:02.534Z,50.852749
2023-02-09T10:09:02.506Z,50.852669
2023-02-09T10:10:02.526Z,50.852741
2023-02-09T10:11:05.292Z,50.852680
2023-02-09T10:12:02.509Z,50.852722
2023-02-09T10:13:02.481Z,50.852741
2023-02-09T10:14:02.466Z,50.852654
2023-02-09T10:15:02.468Z,50.852634
2023-02-09T10:16:02.466Z,50.852741
2023-02-09T10:17:02.504Z,50.852787
2023-02-09T10:18:02.444Z,50.852833
2023-02-09T10:19:02.461Z,50.852798
2023-02-09T10:20:02.469Z,50.852749
2023-02-09T10:21:02.421Z,50.852779
2023-02-09T10:22:02.437Z,50.852791
2023-02-09T10:23:02.403Z,50.852787
2023-02-09T10:24:02.410Z,50.852821
2023-02-09T10:25:02.425Z,50.852707
2023-02-09T10:26:02.391Z,50.852818
2023-02-09T10:27:02.383Z,50.852787
2023-02-09T10:28:02.421Z,50.852783
2023-02-09T10:29:02.378Z,50.852856
2023-02-09T10:30:02.365Z,50.852722
2023-02-09T10:31:02.479Z,50.852802
2023-02-09T10:32:02.421Z,50.852745
2023-02-09T10:33:02.374Z,50.852722
2023-02-09T10:34:02.319Z,50.852760
2023-02-09T10:35:02.357Z,50.852741
2023-02-09T10:36:02.322Z,50.852825
2023-02-09T10:37:02.299Z,50.852825
2023-02-09T10:38:02.303Z,50.852787
2023-02-09T10:39:02.286Z,50.852776
2023-02-09T10:40:02.307Z,50.852890
2023-02-09T10:41:02.303Z,50.852848
2023-02-09T10:42:02.318Z,50.852882
2023-02-09T10:43:02.294Z,50.852833
2023-02-09T10:44:02.260Z,50.852783
2023-02-09T10:45:02.253Z,50.852768
2023-02-09T10:46:02.270Z,50.852890
2023-02-09T10:47:02.226Z,50.852844
2023-02-09T10:48:02.245Z,50.852928
2023-02-09T10:49:02.220Z,50.852772
2023-02-09T10:50:02.208Z,50.852695
2023-02-09T10:51:02.211Z,50.852711
2023-02-09T10:52:02.195Z,50.852737
2023-02-09T10:53:02.212Z,50.852795
2023-02-09T10:54:02.187Z,50.852772
2023-02-09T10:55:02.180Z,50.852760
2023-02-09T10:56:02.170Z,50.852798
2023-02-09T10:57:02.333Z,50.852871
2023-02-09T10:58:02.168Z,50.852947
2023-02-09T10:59:02.172Z,50.852966
2023-02-09T11:00:02.173Z,50.853001
2023-02-09T11:01:02.200Z,50.852970
2023-02-09T11:02:02.123Z,50.853050
2023-02-09T11:03:02.143Z,50.853024
2023-02-09T11:04:02.171Z,50.852993
2023-02-09T11:05:02.137Z,50.852833
2023-02-09T11:06:02.111Z,50.852802
2023-02-09T11:07:02.137Z,50.852779
2023-02-09T11:08:02.122Z,50.852718
2023-02-09T11:09:02.108Z,50.852779
2023-02-09T11:10:02.112Z,50.852856
2023-02-09T11:11:02.086Z,50.852779
2023-02-09T11:12:02.106Z,50.852787
2023-02-09T11:13:02.125Z,50.852818
2023-02-09T11:14:02.057Z,50.852840
2023-02-09T11:15:02.073Z,50.852798
2023-02-09T11:16:02.135Z,50.852844
2023-02-09T11:17:02.071Z,50.852814
2023-02-09T11:18:02.026Z,50.852863
2023-02-09T11:19:02.065Z,50.852867
2023-02-09T11:20:02.029Z,50.852871
2023-02-09T11:21:02.112Z,50.852840
2023-02-09T11:22:02.052Z,50.852798
2023-02-09T11:23:02.009Z,50.852875
2023-02-09T11:24:01.992Z,50.852898
2023-02-09T11:25:01.993Z,50.852833
2023-02-09T11:26:02.002Z,50.852779
2023-02-09T11:27:01.976Z,50.852810
2023-02-09T11:28:02.025Z,50.852833
2023-02-09T11:29:01.957Z,50.852890
2023-02-09T11:30:02.181Z,50.852798
2023-02-09T11:31:02.060Z,50.852871
2023-02-09T11:32:02.074Z,50.852802
2023-02-09T11:33:01.944Z,50.852898
2023-02-09T11:34:01.964Z,50.852894
2023-02-09T11:35:01.951Z,50.852715
2023-02-09T11:36:01.916Z,50.852814
2023-02-09T11:37:01.942Z,50.852753
2023-02-09T11:38:01.936Z,50.852783
2023-02-09T11:39:01.923Z,50.852737
2023-02-09T11:40:01.907Z,50.852921
2023-02-09T11:41:01.907Z,50.852978
2023-02-09T11:42:01.901Z,50.853058
2023-02-09T11:43:01.905Z,50.852879
2023-02-09T11:44:01.870Z,50.852905
2023-02-09T11:45:01.892Z,50.852852
2023-02-09T11:46:01.885Z,50.852993
2023-02-09T11:47:01.858Z,50.852879
2023-02-09T11:48:01.890Z,50.852806
2023-02-09T11:49:01.875Z,50.852913
2023-02-09T11:50:01.881Z,50.852783
2023-02-09T11:51:01.844Z,50.852684
2023-02-09T11:52:01.831Z,50.852734
2023-02-09T11:53:01.853Z,50.852814
2023-02-09T11:54:01.819Z,50.852879
2023-02-09T11:55:01.815Z,50.852776
2023-02-09T11:56:01.823Z,50.852741
2023-02-09T11:57:01.852Z,50.852844
2023-02-09T11:58:01.799Z,50.852829
2023-02-09T11:59:01.821Z,50.852814
2023-02-09T12:00:01.793Z,50.852768
2023-02-09T12:01:14.361Z,50.852753
2023-02-09T12:02:02.794Z,50.852779
2023-02-09T12:03:01.851Z,50.852741
2023-02-09T12:04:01.788Z,50.852741
2023-02-09T12:05:01.759Z,50.852734
2023-02-09T12:06:01.763Z,50.852745
2023-02-09T12:07:01.761Z,50.852779
2023-02-09T12:08:01.750Z,50.852768
2023-02-09T12:09:01.736Z,50.852730
2023-02-09T12:10:01.730Z,50.852776
2023-02-09T12:11:01.724Z,50.852814
2023-02-09T12:12:01.715Z,50.852825
2023-02-09T12:13:01.733Z,50.852875
2023-02-09T12:14:01.697Z,50.852749
2023-02-09T12:15:01.734Z,50.852772
2023-02-09T12:16:01.734Z,50.852745
2023-02-09T12:17:01.693Z,50.852718
2023-02-09T12:18:01.684Z,50.852829
2023-02-09T12:19:01.675Z,50.852768